KHUF/HUF METAR and TAF weather

Enter ICAO airport designator
Station Type Date Time Source
KHUF METAR 2019/06/27 03:53 UTC NOAA

KHUF 270353Z 00000KT 10SM CLR 22/19 A3011 RMK AO2 SLP190 T02220189


Station Type Date Time Source
KHUF Decoded METAR 2019/06/27 03:53 UTC NOAA

TERRE HAUTE INTERNATIONAL -HULMAN FLD, IN, United States (KHUF) 39-27N 087-19W 179M
Jun 26, 2019 - 11:53 PM EDT / 2019.06.27 0353 UTC
Wind: Calm:0
Visibility: 10 mile(s):0
Sky conditions: clear
Temperature: 72.0 F (22.2 C)
Dew Point: 66.0 F (18.9 C)
Relative Humidity: 81%
Pressure (altimeter): 30.11 in. Hg (1019 hPa)
ob: KHUF 270353Z 00000KT 10SM CLR 22/19 A3011 RMK AO2 SLP190 T02220189
cycle: 4

Station Type Date Time Source
KHUF TAF 2019/06/26 18:51 UTC NOAA

TAF KHUF 261849Z 2618/2718 22009KT P6SM SCT040
FM270200 VRB03KT P6SM SCT250

Example: see airport list